Terminal Aerodrome Forecast
Issued by NWS

Current Version | Previous Version | Text Only | Print | Product List | Glossary On
Versions: 1 2 3 4 5 6 7 8 9 10 11 12 13 14 15 16 17 18 19 20 21 22 23 24 25 26 27 28 29 30 31 32 33 34 35 36 37 38 39 40 41 42 43 44 45 46 47 48 49 50
000
FTUS45 KBOU 231137
TAFBJC
TAF
KBJC 231137Z 2312/2412 VRB04KT P6SM FEW140 SCT220
     FM231700 12008KT P6SM FEW100 SCT150 SCT200
     FM232000 15011KT P6SM VCTS SCT090CB BKN140
     FM232300 02010KT P6SM VCSH FEW090 BKN130
     FM240100 32010KT P6SM FEW100 SCT150
     FM240500 26008KT P6SM SCT120 SCT180=

USA.gov is the U.S. government's official web portal to all federal, state and local government web resources and services.